sensor_id;sensor_type;location;lat;lon;timestamp;temperature;humidity
25871;DHT22;13689;48.590;7.752;2022-12-07T00:02:04;6.20;88.20
25871;DHT22;13689;48.590;7.752;2022-12-07T00:04:30;6.20;88.30
25871;DHT22;13689;48.590;7.752;2022-12-07T00:06:56;6.20;88.30
25871;DHT22;13689;48.590;7.752;2022-12-07T00:09:21;6.30;89.10
25871;DHT22;13689;48.590;7.752;2022-12-07T00:11:48;6.30;88.30
25871;DHT22;13689;48.590;7.752;2022-12-07T00:14:14;6.30;88.30
25871;DHT22;13689;48.590;7.752;2022-12-07T00:16:40;6.30;88.30
25871;DHT22;13689;48.590;7.752;2022-12-07T00:19:06;6.30;88.30
25871;DHT22;13689;48.590;7.752;2022-12-07T00:21:32;6.30;88.30
25871;DHT22;13689;48.590;7.752;2022-12-07T00:23:59;6.30;88.30
25871;DHT22;13689;48.590;7.752;2022-12-07T00:26:25;6.30;88.30
25871;DHT22;13689;48.590;7.752;2022-12-07T00:28:53;6.30;88.30
25871;DHT22;13689;48.590;7.752;2022-12-07T00:31:19;6.30;88.30
25871;DHT22;13689;48.590;7.752;2022-12-07T00:33:45;6.40;88.30
25871;DHT22;13689;48.590;7.752;2022-12-07T00:36:15;6.30;89.00
25871;DHT22;13689;48.590;7.752;2022-12-07T00:38:41;6.30;88.30
25871;DHT22;13689;48.590;7.752;2022-12-07T00:41:13;6.30;88.30
25871;DHT22;13689;48.590;7.752;2022-12-07T00:43:40;6.40;88.40
25871;DHT22;13689;48.590;7.752;2022-12-07T00:46:06;6.30;88.30
25871;DHT22;13689;48.590;7.752;2022-12-07T00:48:32;6.40;88.40
25871;DHT22;13689;48.590;7.752;2022-12-07T00:50:57;6.40;88.30
25871;DHT22;13689;48.590;7.752;2022-12-07T00:53:23;6.40;88.30
25871;DHT22;13689;48.590;7.752;2022-12-07T00:55:48;6.40;88.30
25871;DHT22;13689;48.590;7.752;2022-12-07T00:58:14;6.40;88.30
25871;DHT22;13689;48.590;7.752;2022-12-07T01:00:40;6.40;88.30
25871;DHT22;13689;48.590;7.752;2022-12-07T01:03:06;6.40;88.20
25871;DHT22;13689;48.590;7.752;2022-12-07T01:05:32;6.40;88.30
25871;DHT22;13689;48.590;7.752;2022-12-07T01:07:58;6.40;88.30
25871;DHT22;13689;48.590;7.752;2022-12-07T01:10:24;6.40;88.30
25871;DHT22;13689;48.590;7.752;2022-12-07T01:12:49;6.40;88.30
25871;DHT22;13689;48.590;7.752;2022-12-07T01:15:14;6.40;88.30
25871;DHT22;13689;48.590;7.752;2022-12-07T01:17:40;6.40;88.30
25871;DHT22;13689;48.590;7.752;2022-12-07T01:20:06;6.40;88.30
25871;DHT22;13689;48.590;7.752;2022-12-07T01:22:35;6.40;88.30
25871;DHT22;13689;48.590;7.752;2022-12-07T01:25:01;6.40;88.30
25871;DHT22;13689;48.590;7.752;2022-12-07T01:27:26;6.40;88.30
25871;DHT22;13689;48.590;7.752;2022-12-07T01:29:52;6.40;88.30
25871;DHT22;13689;48.590;7.752;2022-12-07T01:32:17;6.40;88.30
25871;DHT22;13689;48.590;7.752;2022-12-07T01:34:43;6.40;88.20
25871;DHT22;13689;48.590;7.752;2022-12-07T01:37:08;6.40;88.30
25871;DHT22;13689;48.590;7.752;2022-12-07T01:39:34;6.40;88.20
25871;DHT22;13689;48.590;7.752;2022-12-07T01:41:59;6.40;88.20
25871;DHT22;13689;48.590;7.752;2022-12-07T01:44:29;6.40;88.20
25871;DHT22;13689;48.590;7.752;2022-12-07T01:46:56;6.40;88.20
25871;DHT22;13689;48.590;7.752;2022-12-07T01:51:47;6.40;88.10
25871;DHT22;13689;48.590;7.752;2022-12-07T01:54:13;6.40;88.10
25871;DHT22;13689;48.590;7.752;2022-12-07T01:56:40;6.40;88.00
25871;DHT22;13689;48.590;7.752;2022-12-07T01:59:07;6.40;88.00
25871;DHT22;13689;48.590;7.752;2022-12-07T02:01:33;6.40;87.90
25871;DHT22;13689;48.590;7.752;2022-12-07T02:03:58;6.40;87.80
25871;DHT22;13689;48.590;7.752;2022-12-07T02:06:24;6.40;87.80
25871;DHT22;13689;48.590;7.752;2022-12-07T02:08:50;6.40;87.80
25871;DHT22;13689;48.590;7.752;2022-12-07T02:11:15;6.40;87.80
25871;DHT22;13689;48.590;7.752;2022-12-07T02:13:42;6.40;87.80
25871;DHT22;13689;48.590;7.752;2022-12-07T02:16:17;6.40;87.70
25871;DHT22;13689;48.590;7.752;2022-12-07T02:18:55;6.40;87.70
25871;DHT22;13689;48.590;7.752;2022-12-07T02:26:48;6.40;87.50
25871;DHT22;13689;48.590;7.752;2022-12-07T02:29:20;6.30;87.30
25871;DHT22;13689;48.590;7.752;2022-12-07T02:31:53;6.20;87.30
25871;DHT22;13689;48.590;7.752;2022-12-07T02:34:24;6.10;87.30
25871;DHT22;13689;48.590;7.752;2022-12-07T02:36:55;6.00;87.40
25871;DHT22;13689;48.590;7.752;2022-12-07T02:42:09;5.80;87.50
25871;DHT22;13689;48.590;7.752;2022-12-07T02:44:37;5.80;87.70
25871;DHT22;13689;48.590;7.752;2022-12-07T02:47:07;5.70;87.80
25871;DHT22;13689;48.590;7.752;2022-12-07T02:49:34;5.70;87.80
25871;DHT22;13689;48.590;7.752;2022-12-07T02:52:00;5.70;87.80
25871;DHT22;13689;48.590;7.752;2022-12-07T02:54:26;5.70;87.90
25871;DHT22;13689;48.590;7.752;2022-12-07T03:09:53;5.90;87.70
25871;DHT22;13689;48.590;7.752;2022-12-07T03:12:25;6.00;87.70
25871;DHT22;13689;48.590;7.752;2022-12-07T03:15:00;6.00;87.50
25871;DHT22;13689;48.590;7.752;2022-12-07T03:17:27;6.00;87.50
25871;DHT22;13689;48.590;7.752;2022-12-07T03:19:56;6.00;87.40
25871;DHT22;13689;48.590;7.752;2022-12-07T03:22:23;6.00;87.40
25871;DHT22;13689;48.590;7.752;2022-12-07T03:24:58;6.10;87.40
25871;DHT22;13689;48.590;7.752;2022-12-07T03:29:54;6.10;87.20
25871;DHT22;13689;48.590;7.752;2022-12-07T03:40:25;6.20;87.00
25871;DHT22;13689;48.590;7.752;2022-12-07T03:42:48;6.20;86.90
25871;DHT22;13689;48.590;7.752;2022-12-07T03:45:14;6.20;86.80
25871;DHT22;13689;48.590;7.752;2022-12-07T03:47:45;6.30;87.40
25871;DHT22;13689;48.590;7.752;2022-12-07T03:52:51;6.10;86.40
25871;DHT22;13689;48.590;7.752;2022-12-07T03:55:26;6.00;86.30
25871;DHT22;13689;48.590;7.752;2022-12-07T03:57:54;6.00;86.70
25871;DHT22;13689;48.590;7.752;2022-12-07T04:00:20;5.80;85.60
25871;DHT22;13689;48.590;7.752;2022-12-07T04:02:45;5.80;86.10
25871;DHT22;13689;48.590;7.752;2022-12-07T04:05:11;5.80;86.30
25871;DHT22;13689;48.590;7.752;2022-12-07T04:07:37;5.80;86.20
25871;DHT22;13689;48.590;7.752;2022-12-07T04:10:03;5.80;86.10
25871;DHT22;13689;48.590;7.752;2022-12-07T04:12:29;5.80;86.10
25871;DHT22;13689;48.590;7.752;2022-12-07T04:14:54;5.80;86.20
25871;DHT22;13689;48.590;7.752;2022-12-07T04:17:19;5.80;86.50
25871;DHT22;13689;48.590;7.752;2022-12-07T04:19:45;5.80;86.20
25871;DHT22;13689;48.590;7.752;2022-12-07T04:22:11;5.80;86.40
25871;DHT22;13689;48.590;7.752;2022-12-07T04:24:36;5.90;86.60
25871;DHT22;13689;48.590;7.752;2022-12-07T04:27:02;5.90;86.40
25871;DHT22;13689;48.590;7.752;2022-12-07T04:29:27;6.00;86.40
25871;DHT22;13689;48.590;7.752;2022-12-07T04:31:53;6.00;86.30
25871;DHT22;13689;48.590;7.752;2022-12-07T04:34:19;6.00;86.20
25871;DHT22;13689;48.590;7.752;2022-12-07T04:36:45;6.00;86.20
25871;DHT22;13689;48.590;7.752;2022-12-07T04:39:18;6.00;86.20
25871;DHT22;13689;48.590;7.752;2022-12-07T04:41:44;5.90;86.10
25871;DHT22;13689;48.590;7.752;2022-12-07T04:44:10;5.90;86.20
25871;DHT22;13689;48.590;7.752;2022-12-07T04:46:36;5.90;86.30
25871;DHT22;13689;48.590;7.752;2022-12-07T04:49:01;5.90;86.30
25871;DHT22;13689;48.590;7.752;2022-12-07T04:51:28;5.90;86.30
25871;DHT22;13689;48.590;7.752;2022-12-07T04:53:54;5.90;86.30
25871;DHT22;13689;48.590;7.752;2022-12-07T04:56:20;5.90;86.20
25871;DHT22;13689;48.590;7.752;2022-12-07T04:58:45;5.80;86.10
25871;DHT22;13689;48.590;7.752;2022-12-07T05:01:11;5.90;86.30
25871;DHT22;13689;48.590;7.752;2022-12-07T05:03:37;5.90;86.20
25871;DHT22;13689;48.590;7.752;2022-12-07T05:06:03;5.90;86.10
25871;DHT22;13689;48.590;7.752;2022-12-07T05:08:29;5.90;86.20
25871;DHT22;13689;48.590;7.752;2022-12-07T05:10:54;5.90;86.20
25871;DHT22;13689;48.590;7.752;2022-12-07T05:13:20;5.90;86.20
25871;DHT22;13689;48.590;7.752;2022-12-07T05:15:48;5.90;86.20
25871;DHT22;13689;48.590;7.752;2022-12-07T05:18:14;5.90;86.10
25871;DHT22;13689;48.590;7.752;2022-12-07T05:20:40;5.90;86.10
25871;DHT22;13689;48.590;7.752;2022-12-07T05:23:06;5.90;86.00
25871;DHT22;13689;48.590;7.752;2022-12-07T05:25:31;5.90;86.00
25871;DHT22;13689;48.590;7.752;2022-12-07T05:27:57;5.90;86.00
25871;DHT22;13689;48.590;7.752;2022-12-07T05:30:23;5.90;86.00
25871;DHT22;13689;48.590;7.752;2022-12-07T05:32:48;5.80;85.90
25871;DHT22;13689;48.590;7.752;2022-12-07T05:35:14;5.80;85.90
25871;DHT22;13689;48.590;7.752;2022-12-07T05:37:39;5.80;85.80
25871;DHT22;13689;48.590;7.752;2022-12-07T05:40:05;5.80;85.90
25871;DHT22;13689;48.590;7.752;2022-12-07T05:42:31;5.80;86.00
25871;DHT22;13689;48.590;7.752;2022-12-07T05:44:56;5.70;86.00
25871;DHT22;13689;48.590;7.752;2022-12-07T05:47:22;5.70;86.00
25871;DHT22;13689;48.590;7.752;2022-12-07T05:49:47;5.70;86.00
25871;DHT22;13689;48.590;7.752;2022-12-07T05:52:13;5.70;86.00
25871;DHT22;13689;48.590;7.752;2022-12-07T05:54:38;5.70;86.00
25871;DHT22;13689;48.590;7.752;2022-12-07T05:57:04;5.60;86.10
25871;DHT22;13689;48.590;7.752;2022-12-07T05:59:29;5.60;86.00
25871;DHT22;13689;48.590;7.752;2022-12-07T06:01:56;5.60;86.00
25871;DHT22;13689;48.590;7.752;2022-12-07T06:04:22;5.70;86.10
25871;DHT22;13689;48.590;7.752;2022-12-07T06:06:48;5.70;86.10
25871;DHT22;13689;48.590;7.752;2022-12-07T06:09:14;5.70;86.10
25871;DHT22;13689;48.590;7.752;2022-12-07T06:11:40;5.70;86.20
25871;DHT22;13689;48.590;7.752;2022-12-07T06:14:26;5.70;86.10
25871;DHT22;13689;48.590;7.752;2022-12-07T06:16:51;5.70;86.00
25871;DHT22;13689;48.590;7.752;2022-12-07T06:19:17;5.80;86.00
25871;DHT22;13689;48.590;7.752;2022-12-07T06:21:42;5.80;86.00
25871;DHT22;13689;48.590;7.752;2022-12-07T06:24:11;5.80;85.90
25871;DHT22;13689;48.590;7.752;2022-12-07T06:26:37;5.80;85.90
25871;DHT22;13689;48.590;7.752;2022-12-07T06:29:03;5.80;85.90
25871;DHT22;13689;48.590;7.752;2022-12-07T06:31:28;5.80;85.80
25871;DHT22;13689;48.590;7.752;2022-12-07T06:33:58;5.80;85.80
25871;DHT22;13689;48.590;7.752;2022-12-07T06:36:23;5.80;85.80
25871;DHT22;13689;48.590;7.752;2022-12-07T06:38:49;5.80;85.80
25871;DHT22;13689;48.590;7.752;2022-12-07T06:41:14;5.90;85.70
25871;DHT22;13689;48.590;7.752;2022-12-07T06:43:39;5.90;85.80
25871;DHT22;13689;48.590;7.752;2022-12-07T06:46:05;5.90;85.80
25871;DHT22;13689;48.590;7.752;2022-12-07T06:48:31;5.90;85.70
25871;DHT22;13689;48.590;7.752;2022-12-07T06:50:56;5.90;85.70
25871;DHT22;13689;48.590;7.752;2022-12-07T06:53:24;6.00;85.70
25871;DHT22;13689;48.590;7.752;2022-12-07T06:55:49;6.00;85.70
25871;DHT22;13689;48.590;7.752;2022-12-07T06:58:15;6.00;85.60
25871;DHT22;13689;48.590;7.752;2022-12-07T07:00:40;6.00;85.50
25871;DHT22;13689;48.590;7.752;2022-12-07T07:03:06;6.10;85.50
25871;DHT22;13689;48.590;7.752;2022-12-07T07:05:33;6.00;86.20
25871;DHT22;13689;48.590;7.752;2022-12-07T07:07:58;6.10;85.40
25871;DHT22;13689;48.590;7.752;2022-12-07T07:10:24;6.10;85.30
25871;DHT22;13689;48.590;7.752;2022-12-07T07:12:49;6.10;85.30
25871;DHT22;13689;48.590;7.752;2022-12-07T07:15:15;6.10;85.30
25871;DHT22;13689;48.590;7.752;2022-12-07T07:17:40;6.10;85.20
25871;DHT22;13689;48.590;7.752;2022-12-07T07:20:06;6.00;85.10
25871;DHT22;13689;48.590;7.752;2022-12-07T07:22:31;6.10;85.30
25871;DHT22;13689;48.590;7.752;2022-12-07T07:24:57;6.10;85.20
25871;DHT22;13689;48.590;7.752;2022-12-07T07:27:22;6.10;85.10
25871;DHT22;13689;48.590;7.752;2022-12-07T07:29:48;6.10;85.00
25871;DHT22;13689;48.590;7.752;2022-12-07T07:32:13;6.10;85.10
25871;DHT22;13689;48.590;7.752;2022-12-07T07:34:39;6.10;85.90
25871;DHT22;13689;48.590;7.752;2022-12-07T07:37:04;6.10;85.00
25871;DHT22;13689;48.590;7.752;2022-12-07T07:39:30;6.10;84.90
25871;DHT22;13689;48.590;7.752;2022-12-07T07:41:55;6.10;84.80
25871;DHT22;13689;48.590;7.752;2022-12-07T07:44:21;6.10;85.00
25871;DHT22;13689;48.590;7.752;2022-12-07T07:46:47;6.10;85.00
25871;DHT22;13689;48.590;7.752;2022-12-07T07:49:12;6.20;85.10
25871;DHT22;13689;48.590;7.752;2022-12-07T07:51:38;6.20;85.10
25871;DHT22;13689;48.590;7.752;2022-12-07T07:54:03;6.20;85.10
25871;DHT22;13689;48.590;7.752;2022-12-07T07:56:29;6.20;85.10
25871;DHT22;13689;48.590;7.752;2022-12-07T07:58:54;6.30;85.00
25871;DHT22;13689;48.590;7.752;2022-12-07T08:01:20;6.20;85.00
25871;DHT22;13689;48.590;7.752;2022-12-07T08:03:48;6.30;85.10
25871;DHT22;13689;48.590;7.752;2022-12-07T08:06:14;6.30;85.10
25871;DHT22;13689;48.590;7.752;2022-12-07T08:08:40;6.30;85.10
25871;DHT22;13689;48.590;7.752;2022-12-07T08:11:06;6.30;85.20
25871;DHT22;13689;48.590;7.752;2022-12-07T08:13:31;6.30;85.30
25871;DHT22;13689;48.590;7.752;2022-12-07T08:15:57;6.40;85.40
25871;DHT22;13689;48.590;7.752;2022-12-07T08:18:22;6.40;85.40
25871;DHT22;13689;48.590;7.752;2022-12-07T08:20:48;6.40;85.40
25871;DHT22;13689;48.590;7.752;2022-12-07T08:23:13;6.40;85.20
25871;DHT22;13689;48.590;7.752;2022-12-07T08:25:39;6.30;85.10
25871;DHT22;13689;48.590;7.752;2022-12-07T08:28:04;6.30;85.60
25871;DHT22;13689;48.590;7.752;2022-12-07T08:30:30;6.40;85.70
25871;DHT22;13689;48.590;7.752;2022-12-07T08:32:56;6.40;85.70
25871;DHT22;13689;48.590;7.752;2022-12-07T08:35:22;6.50;85.80
25871;DHT22;13689;48.590;7.752;2022-12-07T08:37:48;6.50;85.60
25871;DHT22;13689;48.590;7.752;2022-12-07T08:40:13;6.50;85.70
25871;DHT22;13689;48.590;7.752;2022-12-07T08:42:47;6.50;85.80
25871;DHT22;13689;48.590;7.752;2022-12-07T08:45:13;6.60;85.90
25871;DHT22;13689;48.590;7.752;2022-12-07T08:47:53;6.60;85.90
25871;DHT22;13689;48.590;7.752;2022-12-07T08:50:20;6.60;85.90
25871;DHT22;13689;48.590;7.752;2022-12-07T08:52:53;6.60;85.90
25871;DHT22;13689;48.590;7.752;2022-12-07T08:55:19;6.60;86.00
25871;DHT22;13689;48.590;7.752;2022-12-07T08:57:45;6.60;86.00
25871;DHT22;13689;48.590;7.752;2022-12-07T09:00:10;6.60;86.10
25871;DHT22;13689;48.590;7.752;2022-12-07T09:02:36;6.60;86.10
25871;DHT22;13689;48.590;7.752;2022-12-07T09:05:02;6.60;86.10
25871;DHT22;13689;48.590;7.752;2022-12-07T09:07:29;6.60;86.20
25871;DHT22;13689;48.590;7.752;2022-12-07T09:09:55;6.60;86.20
25871;DHT22;13689;48.590;7.752;2022-12-07T09:12:21;6.60;86.20
25871;DHT22;13689;48.590;7.752;2022-12-07T09:14:46;6.60;86.30
25871;DHT22;13689;48.590;7.752;2022-12-07T09:17:12;6.60;86.40
25871;DHT22;13689;48.590;7.752;2022-12-07T09:19:38;6.60;86.50
25871;DHT22;13689;48.590;7.752;2022-12-07T09:22:04;6.60;86.50
25871;DHT22;13689;48.590;7.752;2022-12-07T09:24:30;6.60;86.70
25871;DHT22;13689;48.590;7.752;2022-12-07T09:26:56;6.60;87.50
25871;DHT22;13689;48.590;7.752;2022-12-07T09:29:22;6.70;86.70
25871;DHT22;13689;48.590;7.752;2022-12-07T09:31:47;6.70;86.50
25871;DHT22;13689;48.590;7.752;2022-12-07T09:34:13;6.70;86.50
25871;DHT22;13689;48.590;7.752;2022-12-07T09:36:38;6.70;86.50
25871;DHT22;13689;48.590;7.752;2022-12-07T09:39:04;6.80;86.70
25871;DHT22;13689;48.590;7.752;2022-12-07T09:41:30;6.80;86.50
25871;DHT22;13689;48.590;7.752;2022-12-07T09:44:02;6.90;86.60
25871;DHT22;13689;48.590;7.752;2022-12-07T09:46:29;7.00;86.60
25871;DHT22;13689;48.590;7.752;2022-12-07T09:48:56;7.10;86.60
25871;DHT22;13689;48.590;7.752;2022-12-07T09:51:22;7.20;86.60
25871;DHT22;13689;48.590;7.752;2022-12-07T09:53:49;7.30;86.50
25871;DHT22;13689;48.590;7.752;2022-12-07T09:56:15;7.30;86.40
25871;DHT22;13689;48.590;7.752;2022-12-07T09:58:42;7.30;86.40
25871;DHT22;13689;48.590;7.752;2022-12-07T10:03:34;7.50;86.30
25871;DHT22;13689;48.590;7.752;2022-12-07T10:06:00;7.50;86.30
25871;DHT22;13689;48.590;7.752;2022-12-07T10:08:25;7.60;86.30
25871;DHT22;13689;48.590;7.752;2022-12-07T10:10:52;7.70;86.10
25871;DHT22;13689;48.590;7.752;2022-12-07T10:13:23;7.70;86.00
25871;DHT22;13689;48.590;7.752;2022-12-07T10:15:58;7.70;86.00
25871;DHT22;13689;48.590;7.752;2022-12-07T10:18:34;7.60;85.90
25871;DHT22;13689;48.590;7.752;2022-12-07T10:21:10;7.60;85.80
25871;DHT22;13689;48.590;7.752;2022-12-07T10:23:37;7.60;85.80
25871;DHT22;13689;48.590;7.752;2022-12-07T10:26:25;7.60;85.90
25871;DHT22;13689;48.590;7.752;2022-12-07T10:28:53;7.70;85.90
25871;DHT22;13689;48.590;7.752;2022-12-07T10:31:19;7.70;85.80
25871;DHT22;13689;48.590;7.752;2022-12-07T10:33:50;7.70;85.60
25871;DHT22;13689;48.590;7.752;2022-12-07T10:39:13;7.80;85.50
25871;DHT22;13689;48.590;7.752;2022-12-07T10:41:54;7.90;85.50
25871;DHT22;13689;48.590;7.752;2022-12-07T10:44:27;7.90;85.40
25871;DHT22;13689;48.590;7.752;2022-12-07T10:54:59;8.20;84.50
25871;DHT22;13689;48.590;7.752;2022-12-07T10:57:25;8.30;84.30
25871;DHT22;13689;48.590;7.752;2022-12-07T11:00:18;8.40;84.20
25871;DHT22;13689;48.590;7.752;2022-12-07T11:03:10;8.40;84.00
25871;DHT22;13689;48.590;7.752;2022-12-07T11:08:00;8.30;83.60
25871;DHT22;13689;48.590;7.752;2022-12-07T11:15:55;8.10;83.50
25871;DHT22;13689;48.590;7.752;2022-12-07T11:18:24;8.00;83.30
25871;DHT22;13689;48.590;7.752;2022-12-07T11:20:53;8.00;83.40
25871;DHT22;13689;48.590;7.752;2022-12-07T11:23:26;8.00;83.40
25871;DHT22;13689;48.590;7.752;2022-12-07T11:33:29;8.40;82.60
25871;DHT22;13689;48.590;7.752;2022-12-07T11:39:13;8.50;81.70
25871;DHT22;13689;48.590;7.752;2022-12-07T11:41:22;8.50;81.40
25871;DHT22;13689;48.590;7.752;2022-12-07T11:46:15;8.70;80.90
25871;DHT22;13689;48.590;7.752;2022-12-07T11:48:45;8.70;80.70
25871;DHT22;13689;48.590;7.752;2022-12-07T11:51:12;8.60;80.60
25871;DHT22;13689;48.590;7.752;2022-12-07T11:53:39;8.60;80.70
25871;DHT22;13689;48.590;7.752;2022-12-07T11:56:14;8.60;80.50
25871;DHT22;13689;48.590;7.752;2022-12-07T12:01:22;8.60;80.70
25871;DHT22;13689;48.590;7.752;2022-12-07T12:03:52;8.60;80.70
25871;DHT22;13689;48.590;7.752;2022-12-07T12:06:19;8.50;80.60
25871;DHT22;13689;48.590;7.752;2022-12-07T12:13:58;8.40;80.50
25871;DHT22;13689;48.590;7.752;2022-12-07T12:21:42;8.20;80.90
25871;DHT22;13689;48.590;7.752;2022-12-07T12:24:12;8.20;80.10
25871;DHT22;13689;48.590;7.752;2022-12-07T12:26:40;8.20;79.90
25871;DHT22;13689;48.590;7.752;2022-12-07T12:29:21;8.20;79.70
25871;DHT22;13689;48.590;7.752;2022-12-07T12:32:04;8.10;79.50
25871;DHT22;13689;48.590;7.752;2022-12-07T12:34:40;8.10;79.70
25871;DHT22;13689;48.590;7.752;2022-12-07T12:37:29;8.00;79.60
25871;DHT22;13689;48.590;7.752;2022-12-07T12:42:50;7.90;79.60
25871;DHT22;13689;48.590;7.752;2022-12-07T12:45:18;7.90;79.70
25871;DHT22;13689;48.590;7.752;2022-12-07T12:47:59;7.90;79.60
25871;DHT22;13689;48.590;7.752;2022-12-07T12:52:52;7.70;79.70
25871;DHT22;13689;48.590;7.752;2022-12-07T12:55:19;7.80;79.80
25871;DHT22;13689;48.590;7.752;2022-12-07T12:57:47;7.80;79.70
25871;DHT22;13689;48.590;7.752;2022-12-07T13:00:21;7.80;79.70
25871;DHT22;13689;48.590;7.752;2022-12-07T13:02:50;7.70;79.60
25871;DHT22;13689;48.590;7.752;2022-12-07T13:05:23;7.70;79.70
25871;DHT22;13689;48.590;7.752;2022-12-07T13:07:59;7.70;79.90
25871;DHT22;13689;48.590;7.752;2022-12-07T13:12:57;7.60;80.00
25871;DHT22;13689;48.590;7.752;2022-12-07T13:15:39;7.60;80.00
25871;DHT22;13689;48.590;7.752;2022-12-07T13:20:43;7.60;80.20
25871;DHT22;13689;48.590;7.752;2022-12-07T13:23:09;7.60;80.20
25871;DHT22;13689;48.590;7.752;2022-12-07T13:25:46;7.50;80.30
25871;DHT22;13689;48.590;7.752;2022-12-07T13:28:18;7.60;81.10
25871;DHT22;13689;48.590;7.752;2022-12-07T13:33:18;7.60;80.40
25871;DHT22;13689;48.590;7.752;2022-12-07T13:35:44;7.60;80.30
25871;DHT22;13689;48.590;7.752;2022-12-07T13:38:23;7.60;80.30
25871;DHT22;13689;48.590;7.752;2022-12-07T13:41:11;7.60;80.30
25871;DHT22;13689;48.590;7.752;2022-12-07T13:43:51;7.60;80.30
25871;DHT22;13689;48.590;7.752;2022-12-07T13:46:17;7.60;80.30
25871;DHT22;13689;48.590;7.752;2022-12-07T13:48:48;7.60;80.40
25871;DHT22;13689;48.590;7.752;2022-12-07T13:51:19;7.60;80.50
25871;DHT22;13689;48.590;7.752;2022-12-07T13:53:48;7.60;80.40
25871;DHT22;13689;48.590;7.752;2022-12-07T13:56:14;7.60;80.40
25871;DHT22;13689;48.590;7.752;2022-12-07T13:58:41;7.60;80.40
25871;DHT22;13689;48.590;7.752;2022-12-07T14:01:07;7.60;80.30
25871;DHT22;13689;48.590;7.752;2022-12-07T14:03:33;7.60;80.50
25871;DHT22;13689;48.590;7.752;2022-12-07T14:06:46;7.60;80.50
25871;DHT22;13689;48.590;7.752;2022-12-07T14:08:50;7.60;80.50
25871;DHT22;13689;48.590;7.752;2022-12-07T14:11:17;7.60;80.50
25871;DHT22;13689;48.590;7.752;2022-12-07T14:18:46;7.50;80.40
25871;DHT22;13689;48.590;7.752;2022-12-07T14:21:15;7.60;80.50
25871;DHT22;13689;48.590;7.752;2022-12-07T14:23:42;7.50;81.30
25871;DHT22;13689;48.590;7.752;2022-12-07T14:26:12;7.50;80.50
25871;DHT22;13689;48.590;7.752;2022-12-07T14:28:38;7.50;80.60
25871;DHT22;13689;48.590;7.752;2022-12-07T14:31:08;7.50;80.60
25871;DHT22;13689;48.590;7.752;2022-12-07T14:33:35;7.40;80.50
25871;DHT22;13689;48.590;7.752;2022-12-07T14:36:00;7.40;80.50
25871;DHT22;13689;48.590;7.752;2022-12-07T14:38:26;7.40;80.70
25871;DHT22;13689;48.590;7.752;2022-12-07T14:40:52;7.40;80.50
25871;DHT22;13689;48.590;7.752;2022-12-07T14:43:18;7.20;80.50
25871;DHT22;13689;48.590;7.752;2022-12-07T14:45:44;7.20;80.90
25871;DHT22;13689;48.590;7.752;2022-12-07T14:48:13;7.10;81.00
25871;DHT22;13689;48.590;7.752;2022-12-07T14:50:46;7.10;81.30
25871;DHT22;13689;48.590;7.752;2022-12-07T14:53:14;7.10;81.40
25871;DHT22;13689;48.590;7.752;2022-12-07T14:55:40;7.10;81.30
25871;DHT22;13689;48.590;7.752;2022-12-07T14:58:06;7.20;81.30
25871;DHT22;13689;48.590;7.752;2022-12-07T15:00:31;7.20;81.20
25871;DHT22;13689;48.590;7.752;2022-12-07T15:02:58;7.20;81.20
25871;DHT22;13689;48.590;7.752;2022-12-07T15:05:24;7.10;81.00
25871;DHT22;13689;48.590;7.752;2022-12-07T15:07:50;7.10;81.10
25871;DHT22;13689;48.590;7.752;2022-12-07T15:10:20;7.10;81.20
25871;DHT22;13689;48.590;7.752;2022-12-07T15:12:46;7.10;81.20
25871;DHT22;13689;48.590;7.752;2022-12-07T15:15:12;7.10;81.20
25871;DHT22;13689;48.590;7.752;2022-12-07T15:17:37;7.10;81.30
25871;DHT22;13689;48.590;7.752;2022-12-07T15:20:03;7.10;81.30
25871;DHT22;13689;48.590;7.752;2022-12-07T15:22:29;7.10;81.30
25871;DHT22;13689;48.590;7.752;2022-12-07T15:24:56;7.10;81.90
25871;DHT22;13689;48.590;7.752;2022-12-07T15:27:22;7.10;81.30
25871;DHT22;13689;48.590;7.752;2022-12-07T15:29:47;7.00;81.10
25871;DHT22;13689;48.590;7.752;2022-12-07T15:32:13;7.00;81.30
25871;DHT22;13689;48.590;7.752;2022-12-07T15:34:38;7.00;81.30
25871;DHT22;13689;48.590;7.752;2022-12-07T15:37:04;7.00;81.30
25871;DHT22;13689;48.590;7.752;2022-12-07T15:39:29;6.90;81.60
25871;DHT22;13689;48.590;7.752;2022-12-07T15:41:55;6.90;81.70
25871;DHT22;13689;48.590;7.752;2022-12-07T15:44:20;7.00;81.80
25871;DHT22;13689;48.590;7.752;2022-12-07T15:47:04;7.00;81.80
25871;DHT22;13689;48.590;7.752;2022-12-07T15:49:30;7.00;81.60
25871;DHT22;13689;48.590;7.752;2022-12-07T15:51:56;7.00;81.70
25871;DHT22;13689;48.590;7.752;2022-12-07T15:54:22;6.90;81.70
25871;DHT22;13689;48.590;7.752;2022-12-07T15:56:48;6.90;81.60
25871;DHT22;13689;48.590;7.752;2022-12-07T15:59:14;6.90;81.80
25871;DHT22;13689;48.590;7.752;2022-12-07T16:01:40;6.90;81.90
25871;DHT22;13689;48.590;7.752;2022-12-07T16:04:05;6.90;81.80
25871;DHT22;13689;48.590;7.752;2022-12-07T16:06:31;6.80;81.90
25871;DHT22;13689;48.590;7.752;2022-12-07T16:08:56;6.90;82.00
25871;DHT22;13689;48.590;7.752;2022-12-07T16:11:22;6.90;81.90
25871;DHT22;13689;48.590;7.752;2022-12-07T16:13:47;6.90;81.90
25871;DHT22;13689;48.590;7.752;2022-12-07T16:16:14;6.90;82.40
25871;DHT22;13689;48.590;7.752;2022-12-07T16:18:41;6.80;81.90
25871;DHT22;13689;48.590;7.752;2022-12-07T16:21:06;6.90;82.00
25871;DHT22;13689;48.590;7.752;2022-12-07T16:23:32;6.90;82.00
25871;DHT22;13689;48.590;7.752;2022-12-07T16:26:17;6.80;81.80
25871;DHT22;13689;48.590;7.752;2022-12-07T16:28:43;6.80;82.00
25871;DHT22;13689;48.590;7.752;2022-12-07T16:31:13;6.90;82.10
25871;DHT22;13689;48.590;7.752;2022-12-07T16:33:39;6.90;82.00
25871;DHT22;13689;48.590;7.752;2022-12-07T16:36:05;6.90;82.00
25871;DHT22;13689;48.590;7.752;2022-12-07T16:38:31;6.80;81.90
25871;DHT22;13689;48.590;7.752;2022-12-07T16:40:57;6.80;82.00
25871;DHT22;13689;48.590;7.752;2022-12-07T16:43:22;6.80;81.90
25871;DHT22;13689;48.590;7.752;2022-12-07T16:45:48;6.80;82.00
25871;DHT22;13689;48.590;7.752;2022-12-07T16:48:14;6.80;82.00
25871;DHT22;13689;48.590;7.752;2022-12-07T16:50:40;6.90;82.10
25871;DHT22;13689;48.590;7.752;2022-12-07T16:53:06;6.90;82.10
25871;DHT22;13689;48.590;7.752;2022-12-07T16:55:35;6.90;82.10
25871;DHT22;13689;48.590;7.752;2022-12-07T16:58:00;6.90;82.10
25871;DHT22;13689;48.590;7.752;2022-12-07T17:00:26;6.90;82.10
25871;DHT22;13689;48.590;7.752;2022-12-07T17:02:54;6.90;82.10
25871;DHT22;13689;48.590;7.752;2022-12-07T17:05:23;6.90;82.00
25871;DHT22;13689;48.590;7.752;2022-12-07T17:07:55;6.90;82.10
25871;DHT22;13689;48.590;7.752;2022-12-07T17:10:21;6.90;82.10
25871;DHT22;13689;48.590;7.752;2022-12-07T17:12:46;6.90;82.10
25871;DHT22;13689;48.590;7.752;2022-12-07T17:15:12;6.90;82.20
25871;DHT22;13689;48.590;7.752;2022-12-07T17:17:57;6.90;82.20
25871;DHT22;13689;48.590;7.752;2022-12-07T17:20:26;6.80;82.10
25871;DHT22;13689;48.590;7.752;2022-12-07T17:22:52;6.90;82.30
25871;DHT22;13689;48.590;7.752;2022-12-07T17:25:18;6.80;82.30
25871;DHT22;13689;48.590;7.752;2022-12-07T17:27:46;6.80;82.30
25871;DHT22;13689;48.590;7.752;2022-12-07T17:30:13;6.80;82.20